Time;durP1;ratioP1;P1;durP2;ratioP2;P2;SDS_P1;SDS_P2;PMS_P1;PMS_P2;Temp;Humidity;BMP_temperature;BMP_pressure;BME280_temperature;BME280_humidity;BME280_pressure;Samples;Min_cycle;Max_cycle;Signal;HPM_P1;HPM_P2
2022/01/11 00:01:01;;;;;;;169.35;74.07;;;;;;;0.86;51.79;102567.91;5073549;28;20048;-72
2022/01/11 00:03:28;;;;;;;173.45;72.72;;;;;;;0.31;53.04;102567.94;5073198;28;20488;-72
2022/01/11 00:06:02;;;;;;;163.48;70.15;;;;;;;0.68;52.65;102574.66;5071036;28;20040;-72
2022/01/11 00:08:33;;;;;;;167.20;72.25;;;;;;;1.23;51.00;102572.78;5074007;28;20056;-72
2022/01/11 00:11:04;;;;;;;169.00;72.22;;;;;;;0.82;51.78;102582.13;5073891;28;20064;-72
2022/01/11 00:13:34;;;;;;;170.95;72.85;;;;;;;0.56;52.24;102578.56;5074032;28;20538;-72
2022/01/11 00:16:01;;;;;;;166.10;72.32;;;;;;;0.71;52.29;102579.81;5072810;28;20433;-72
2022/01/11 00:18:27;;;;;;;175.27;74.55;;;;;;;0.87;51.76;102572.25;5072712;28;20059;-72
2022/01/11 00:20:55;;;;;;;175.48;77.93;;;;;;;1.25;51.16;102576.22;5073288;28;20128;-72
2022/01/11 00:25:53;;;;;;;173.23;76.63;;;;;;;1.19;51.01;102568.50;5073151;28;20071;-72
2022/01/11 00:28:22;;;;;;;169.77;72.43;;;;;;;1.49;49.93;102567.41;5073028;28;20135;-72
2022/01/11 00:30:49;;;;;;;182.90;74.82;;;;;;;1.39;50.55;102565.16;5076336;28;20040;-72
2022/01/11 00:33:23;;;;;;;185.15;75.25;;;;;;;1.66;49.88;102568.56;5077670;28;20050;-72
2022/01/11 00:36:00;;;;;;;169.40;72.25;;;;;;;0.52;51.96;102572.50;5077243;28;20424;-72
2022/01/11 00:38:33;;;;;;;162.73;73.68;;;;;;;0.76;52.02;102572.63;5076054;28;20045;-72
2022/01/11 00:41:03;;;;;;;172.95;74.88;;;;;;;1.20;50.72;102570.25;5077446;28;20044;-72
2022/01/11 00:43:31;;;;;;;175.02;74.22;;;;;;;1.49;50.24;102572.69;5077048;28;20076;-72
2022/01/11 00:45:59;;;;;;;178.75;75.97;;;;;;;1.32;50.82;102571.56;5076150;28;20055;-73
2022/01/11 00:48:25;;;;;;;162.55;71.32;;;;;;;1.23;50.73;102578.06;5076965;28;20044;-72
2022/01/11 00:50:53;;;;;;;171.85;72.13;;;;;;;0.47;52.42;102584.16;5077533;28;20120;-72
2022/01/11 00:53:20;;;;;;;168.73;75.43;;;;;;;0.20;53.22;102594.66;5076522;28;20068;-72
2022/01/11 00:55:47;;;;;;;177.00;76.53;;;;;;;0.28;53.61;102597.06;5077168;28;20075;-72
2022/01/11 00:58:15;;;;;;;186.15;78.97;;;;;;;0.47;52.91;102606.13;5076036;28;20056;-72
2022/01/11 01:00:42;;;;;;;189.88;80.35;;;;;;;1.28;50.93;102607.84;5075252;28;20123;-72
2022/01/11 01:03:09;;;;;;;191.40;80.57;;;;;;;1.03;51.02;102612.25;5075375;28;20452;-72
2022/01/11 01:05:36;;;;;;;192.65;83.45;;;;;;;1.08;50.81;102608.53;5076349;28;20044;-73
2022/01/11 01:08:03;;;;;;;191.35;81.75;;;;;;;0.99;51.62;102628.22;5076355;28;20044;-74
2022/01/11 01:10:35;;;;;;;197.85;83.55;;;;;;;0.64;52.05;102623.22;5075821;28;20068;-73
2022/01/11 01:13:05;;;;;;;195.25;81.43;;;;;;;1.39;50.51;102620.69;5076271;28;20048;-72
2022/01/11 01:15:34;;;;;;;142.87;62.20;;;;;;;1.00;51.53;102622.00;5076368;28;20068;-72
2022/01/11 01:18:02;;;;;;;197.35;81.93;;;;;;;1.29;50.72;102633.34;5072005;28;20067;-72
2022/01/11 01:20:29;;;;;;;208.98;84.80;;;;;;;0.56;51.85;102636.66;5076489;28;20131;-72
2022/01/11 01:22:55;;;;;;;202.77;81.97;;;;;;;1.22;50.90;102640.63;5076073;28;20049;-72
2022/01/11 01:25:23;;;;;;;198.07;85.38;;;;;;;0.68;51.61;102644.22;5075996;28;20127;-72
2022/01/11 01:27:52;;;;;;;203.70;85.32;;;;;;;0.23;52.88;102651.78;5066025;28;20131;-74
2022/01/11 01:30:21;;;;;;;194.07;84.47;;;;;;;-0.04;53.07;102654.31;5075752;28;20127;-72
2022/01/11 01:32:49;;;;;;;202.20;87.45;;;;;;;0.90;51.67;102662.88;5075214;28;20441;-73
2022/01/11 01:35:18;;;;;;;212.40;88.85;;;;;;;1.31;50.39;102650.03;5075756;28;20075;-73
2022/01/11 01:37:44;;;;;;;202.35;87.68;;;;;;;1.63;49.80;102658.63;5074869;28;20492;-73
2022/01/11 01:40:13;;;;;;;200.77;84.35;;;;;;;0.85;51.07;102651.59;5075433;28;20045;-73
2022/01/11 01:42:40;;;;;;;197.68;82.70;;;;;;;0.38;52.43;102653.94;5075230;28;20442;-72
2022/01/11 01:45:06;;;;;;;202.35;80.05;;;;;;;-0.04;53.45;102656.09;5075138;28;20072;-72
2022/01/11 01:47:33;;;;;;;210.70;84.93;;;;;;;-0.09;54.31;102658.84;5074926;28;20127;-72
2022/01/11 01:50:00;;;;;;;209.48;83.53;;;;;;;0.26;52.54;102659.59;5074988;28;20044;-72
2022/01/11 01:52:26;;;;;;;209.85;84.57;;;;;;;-0.52;54.73;102659.19;5075986;28;20048;-72
2022/01/11 01:54:53;;;;;;;209.35;85.25;;;;;;;-0.34;54.51;102668.34;5075735;28;20072;-73
2022/01/11 01:57:20;;;;;;;218.15;87.60;;;;;;;0.33;53.29;102666.44;5075100;28;20064;-74
2022/01/11 01:59:46;;;;;;;214.95;85.03;;;;;;;-0.06;53.52;102668.44;5074159;28;20044;-74
2022/01/11 02:02:14;;;;;;;216.82;84.97;;;;;;;-0.48;54.24;102671.38;5070037;28;20104;-74
2022/01/11 02:04:41;;;;;;;224.23;88.30;;;;;;;0.27;53.59;102670.13;5075506;28;20049;-74
2022/01/11 02:07:23;;;;;;;213.43;86.18;;;;;;;0.34;53.26;102678.72;5073909;28;20080;-74
2022/01/11 02:09:49;;;;;;;231.70;86.75;;;;;;;0.62;52.47;102675.25;5074550;28;20111;-74
2022/01/11 02:12:16;;;;;;;222.70;87.22;;;;;;;0.72;52.46;102677.53;5074638;28;20120;-74
2022/01/11 02:14:42;;;;;;;212.57;84.55;;;;;;;0.64;51.95;102671.66;5074316;28;20071;-74
2022/01/11 02:17:09;;;;;;;214.30;84.90;;;;;;;1.05;51.42;102671.19;5074111;28;20119;-74
2022/01/11 02:19:35;;;;;;;207.65;85.70;;;;;;;1.25;50.94;102679.34;5073678;28;20515;-74
2022/01/11 02:22:02;;;;;;;209.00;86.03;;;;;;;1.08;51.32;102676.38;5074888;28;20123;-74
2022/01/11 02:24:32;;;;;;;201.80;84.40;;;;;;;0.75;52.03;102679.22;5073618;28;20076;-74
2022/01/11 02:26:59;;;;;;;184.83;79.07;;;;;;;0.72;52.20;102690.75;5074748;28;20154;-74
2022/01/11 02:29:27;;;;;;;211.05;82.60;;;;;;;0.62;51.96;102696.38;5075130;28;20687;-74
2022/01/11 02:31:54;;;;;;;204.57;78.38;;;;;;;-0.25;53.70;102694.50;5075153;28;20583;-74
2022/01/11 02:34:21;;;;;;;186.73;77.57;;;;;;;-0.88;55.25;102692.59;5074083;28;20044;-72
2022/01/11 02:36:47;;;;;;;217.30;81.85;;;;;;;-0.63;55.85;102696.38;5073783;28;20131;-72
2022/01/11 02:39:14;;;;;;;206.40;78.57;;;;;;;-0.56;54.89;102705.84;5074556;28;20129;-72
2022/01/11 02:41:53;;;;;;;205.68;79.68;;;;;;;-0.66;55.81;102707.00;5074957;28;20479;-72
2022/01/11 02:44:20;;;;;;;219.73;83.10;;;;;;;-0.03;54.00;102702.66;5073651;28;20476;-72
2022/01/11 02:46:46;;;;;;;218.65;82.63;;;;;;;-0.28;54.71;102707.75;5074488;28;20166;-72
2022/01/11 02:49:13;;;;;;;208.73;79.05;;;;;;;-0.13;54.25;102709.09;5073780;28;20074;-72
2022/01/11 02:51:40;;;;;;;219.85;83.65;;;;;;;0.09;53.49;102709.34;5074405;28;20067;-72
2022/01/11 02:54:06;;;;;;;222.02;82.20;;;;;;;0.73;52.62;102708.31;5072747;28;20108;-73
2022/01/11 02:56:34;;;;;;;227.52;83.53;;;;;;;0.48;52.93;102716.13;5074114;28;20127;-72
2022/01/11 02:59:01;;;;;;;213.60;81.72;;;;;;;0.67;51.76;102712.91;5073499;28;20063;-72
2022/01/11 03:01:28;;;;;;;204.20;76.95;;;;;;;0.49;52.79;102714.34;5073145;28;20125;-72
2022/01/11 03:03:55;;;;;;;215.55;73.70;;;;;;;-1.05;55.66;102720.25;5073455;28;20049;-73
2022/01/11 03:06:21;;;;;;;203.57;74.88;;;;;;;-0.64;55.67;102723.66;5073951;28;20135;-72
2022/01/11 03:08:48;;;;;;;210.52;74.40;;;;;;;-0.24;54.36;102718.19;5072333;28;20052;-72
2022/01/11 03:11:18;;;;;;;207.30;72.40;;;;;;;-0.22;54.37;102726.06;5073092;28;20541;-73
2022/01/11 03:13:44;;;;;;;219.88;76.60;;;;;;;-0.45;55.27;102729.31;5073532;28;20120;-73
2022/01/11 03:16:12;;;;;;;202.50;71.50;;;;;;;-0.54;55.02;102733.03;5073799;28;20049;-72
2022/01/11 03:18:39;;;;;;;212.07;71.55;;;;;;;0.27;53.41;102736.13;5072825;28;20048;-72
2022/01/11 03:21:05;;;;;;;206.52;69.90;;;;;;;-0.03;53.61;102736.97;5074203;28;20047;-72
2022/01/11 03:23:31;;;;;;;205.02;69.28;;;;;;;-0.71;54.96;102740.50;5073200;28;20071;-72
2022/01/11 03:26:01;;;;;;;191.48;69.38;;;;;;;-0.74;55.52;102735.31;5073250;28;20079;-72
2022/01/11 03:28:28;;;;;;;190.38;67.10;;;;;;;-0.35;54.74;102751.03;5071731;28;20071;-72
2022/01/11 03:30:55;;;;;;;203.30;70.15;;;;;;;0.15;53.67;102751.44;5075059;28;20132;-72
2022/01/11 03:33:22;;;;;;;186.07;66.82;;;;;;;-0.34;54.68;102747.47;5074615;28;20056;-72
2022/01/11 03:35:50;;;;;;;197.40;66.18;;;;;;;-0.02;54.37;102746.59;5072671;28;20547;-72
2022/01/11 03:38:17;;;;;;;203.45;68.88;;;;;;;0.33;52.99;102750.03;5073504;28;20467;-72
2022/01/11 03:40:44;;;;;;;187.57;63.33;;;;;;;0.11;53.40;102748.00;5072311;28;20076;-72
2022/01/11 03:43:10;;;;;;;196.98;65.43;;;;;;;-0.23;54.69;102745.41;5074042;28;20075;-72
2022/01/11 03:45:38;;;;;;;190.02;62.03;;;;;;;-0.16;54.24;102754.91;5074292;28;20066;-72
2022/01/11 03:48:06;;;;;;;188.27;61.65;;;;;;;0.37;53.21;102759.63;5071777;28;20083;-72
2022/01/11 03:50:33;;;;;;;191.00;62.38;;;;;;;0.14;53.01;102758.47;5072183;28;20049;-72
2022/01/11 03:53:13;;;;;;;196.88;63.72;;;;;;;0.70;52.23;102760.38;5073334;28;20087;-72
2022/01/11 03:56:10;;;;;;;195.45;60.25;;;;;;;0.45;52.54;102755.84;5063044;28;20048;-72
2022/01/11 03:58:29;;;;;;;188.80;64.03;;;;;;;1.27;50.33;102755.97;5071294;28;20175;-72
2022/01/11 04:00:57;;;;;;;190.68;62.80;;;;;;;0.87;51.79;102752.81;5073029;28;20131;-73
2022/01/11 04:03:25;;;;;;;178.70;63.00;;;;;;;0.46;52.57;102762.84;5074443;28;20048;-73
2022/01/11 04:05:52;;;;;;;184.25;61.25;;;;;;;0.00;53.36;102764.13;5077541;28;20056;-73
2022/01/11 04:08:19;;;;;;;175.27;59.72;;;;;;;-0.20;54.70;102774.34;5075901;28;20053;-72
2022/01/11 04:10:46;;;;;;;172.02;56.22;;;;;;;-0.28;54.43;102769.28;5077321;28;20044;-73
2022/01/11 04:13:13;;;;;;;170.48;57.20;;;;;;;-1.14;56.67;102770.50;5076836;28;20051;-73
2022/01/11 04:15:39;;;;;;;170.13;55.28;;;;;;;-1.03;57.23;102779.00;5076424;28;20052;-73
2022/01/11 04:18:06;;;;;;;166.82;55.05;;;;;;;-0.85;56.04;102767.19;5076881;28;20096;-73
2022/01/11 04:20:32;;;;;;;183.23;60.83;;;;;;;-0.36;55.44;102773.00;5076848;28;20079;-73
2022/01/11 04:22:59;;;;;;;178.18;58.47;;;;;;;0.25;53.38;102768.72;5078124;28;20047;-73
2022/01/11 04:25:25;;;;;;;182.98;56.70;;;;;;;-0.26;54.03;102771.88;5078091;28;20078;-73
2022/01/11 04:27:52;;;;;;;165.07;56.55;;;;;;;-0.13;54.05;102778.56;5076184;28;20123;-73
2022/01/11 04:30:19;;;;;;;175.88;58.03;;;;;;;-0.05;54.11;102778.34;5076649;28;20098;-73
2022/01/11 04:32:45;;;;;;;170.30;54.63;;;;;;;-1.13;56.05;102782.75;5077157;28;20068;-73
2022/01/11 04:35:15;;;;;;;175.77;57.78;;;;;;;-0.74;56.72;102778.34;5077050;28;20112;-73
2022/01/11 04:37:44;;;;;;;184.23;60.03;;;;;;;-0.38;55.29;102778.34;5076324;28;20048;-73
2022/01/11 04:40:11;;;;;;;191.57;61.35;;;;;;;0.29;53.73;102780.94;5076475;28;20110;-73
2022/01/11 04:42:38;;;;;;;179.55;58.85;;;;;;;0.23;53.25;102776.72;5077344;28;20504;-72
2022/01/11 04:45:05;;;;;;;176.15;57.75;;;;;;;0.36;53.09;102774.56;5074989;28;20139;-73
2022/01/11 04:47:32;;;;;;;179.23;58.42;;;;;;;0.22;53.20;102774.09;5076124;28;20049;-73
2022/01/11 04:49:58;;;;;;;185.82;59.58;;;;;;;-0.12;54.62;102780.31;5078294;28;20069;-73
2022/01/11 04:52:25;;;;;;;181.90;56.42;;;;;;;-0.77;55.67;102785.47;5077962;28;20497;-73
2022/01/11 04:54:51;;;;;;;173.73;53.90;;;;;;;-0.50;54.86;102779.53;5076625;28;20561;-73
2022/01/11 04:57:38;;;;;;;185.45;59.83;;;;;;;-0.42;54.98;102774.91;5075842;28;20070;-73
2022/01/11 05:00:05;;;;;;;184.43;59.00;;;;;;;-1.43;58.25;102769.38;5077294;28;20064;-73
2022/01/11 05:02:31;;;;;;;174.77;56.25;;;;;;;-1.26;57.79;102783.94;5075504;28;20068;-73
2022/01/11 05:04:58;;;;;;;174.07;58.58;;;;;;;-0.50;55.76;102779.53;5076353;28;20439;-73
2022/01/11 05:07:25;;;;;;;177.23;55.83;;;;;;;-0.17;54.60;102791.88;5075879;28;21659;-72
2022/01/11 05:09:53;;;;;;;180.98;58.95;;;;;;;0.32;53.45;102791.41;5075304;28;20071;-73
2022/01/11 05:12:20;;;;;;;178.95;57.92;;;;;;;0.63;52.58;102795.81;5076150;28;20115;-73
2022/01/11 05:14:46;;;;;;;182.13;60.47;;;;;;;0.72;52.24;102790.28;5075165;28;20068;-73
2022/01/11 05:17:13;;;;;;;168.18;54.72;;;;;;;0.67;52.17;102794.81;5066964;28;20465;-72
2022/01/11 05:19:39;;;;;;;183.77;59.90;;;;;;;1.08;51.13;102798.84;5075385;28;20139;-73
2022/01/11 05:22:06;;;;;;;178.00;55.28;;;;;;;1.21;50.62;102792.25;5074823;28;20188;-73
2022/01/11 05:24:32;;;;;;;165.35;56.65;;;;;;;1.04;51.00;102794.56;5076686;28;20044;-73
2022/01/11 05:26:59;;;;;;;158.00;54.33;;;;;;;0.16;52.83;102806.81;5075260;28;20067;-74
2022/01/11 05:29:26;;;;;;;173.82;55.28;;;;;;;0.33;52.87;102803.72;5076167;28;20109;-72
2022/01/11 05:31:52;;;;;;;159.20;54.47;;;;;;;0.44;52.41;102806.94;5075757;28;20140;-72
2022/01/11 05:34:18;;;;;;;150.50;53.20;;;;;;;-0.11;53.50;102810.19;5073952;28;20067;-72
2022/01/11 05:36:45;;;;;;;159.18;51.63;;;;;;;0.24;52.98;102822.44;5075322;28;20135;-72
2022/01/11 05:39:11;;;;;;;151.18;51.85;;;;;;;0.38;52.72;102816.78;5075629;28;20046;-72
2022/01/11 05:41:38;;;;;;;159.23;54.50;;;;;;;0.32;52.49;102832.78;5076305;28;20068;-72
2022/01/11 05:44:04;;;;;;;154.45;49.08;;;;;;;-0.67;54.95;102824.75;5075292;28;20518;-73
2022/01/11 05:46:31;;;;;;;148.88;51.15;;;;;;;-0.93;56.72;102819.19;5076218;28;20064;-72
2022/01/11 05:48:58;;;;;;;147.00;49.15;;;;;;;-1.39;57.28;102828.09;5076599;28;20071;-72
2022/01/11 05:51:26;;;;;;;170.40;53.30;;;;;;;-0.22;54.72;102818.41;5075856;28;20079;-73
2022/01/11 05:53:54;;;;;;;139.38;49.58;;;;;;;-1.29;56.43;102823.50;5074304;28;20078;-73
2022/01/11 05:56:20;;;;;;;143.65;49.30;;;;;;;-0.97;56.34;102826.31;5074664;28;20072;-73
2022/01/11 05:58:47;;;;;;;138.15;47.13;;;;;;;-0.42;54.90;102818.88;5064658;28;20060;-73
2022/01/11 06:01:14;;;;;;;131.70;48.30;;;;;;;-0.58;55.42;102826.28;5074740;28;20142;-73
2022/01/11 06:03:41;;;;;;;138.48;44.78;;;;;;;0.28;53.63;102821.44;5073691;28;20055;-74
2022/01/11 06:06:08;;;;;;;128.10;47.75;;;;;;;-0.13;54.16;102825.19;5075955;28;20377;-74
2022/01/11 06:08:35;;;;;;;141.60;49.55;;;;;;;0.13;53.98;102832.44;5076767;28;20386;-74
2022/01/11 06:11:03;;;;;;;133.82;45.65;;;;;;;-0.24;53.89;102828.97;5075908;28;20032;-74
2022/01/11 06:13:29;;;;;;;136.93;49.33;;;;;;;0.08;53.04;102829.91;5075391;28;20055;-74
2022/01/11 06:15:56;;;;;;;131.90;46.63;;;;;;;0.66;51.94;102830.06;5074822;28;20087;-74
2022/01/11 06:18:22;;;;;;;132.75;48.05;;;;;;;1.03;50.72;102835.16;5074554;28;20057;-74
2022/01/11 06:20:49;;;;;;;129.70;47.22;;;;;;;-0.11;53.40;102840.09;5073515;28;20067;-74
2022/01/11 06:23:15;;;;;;;126.95;46.13;;;;;;;0.06;53.46;102844.94;5073132;28;20080;-74
2022/01/11 06:25:41;;;;;;;125.40;44.63;;;;;;;-0.15;53.40;102842.84;5073870;28;20079;-74
2022/01/11 06:28:08;;;;;;;120.88;44.10;;;;;;;0.82;51.08;102836.66;5076229;28;20041;-74
2022/01/11 06:30:35;;;;;;;128.20;48.15;;;;;;;0.70;51.06;102843.13;5076499;28;20132;-74
2022/01/11 06:33:01;;;;;;;131.75;47.75;;;;;;;0.35;52.61;102854.69;5073553;28;20489;-74
2022/01/11 06:35:28;;;;;;;127.45;46.85;;;;;;;-0.43;54.32;102852.31;5074203;28;20139;-74
2022/01/11 06:37:55;;;;;;;123.55;42.70;;;;;;;-0.34;53.93;102853.84;5074911;28;20400;-74
2022/01/11 06:40:22;;;;;;;128.43;44.95;;;;;;;-0.44;54.21;102852.31;5075286;28;20396;-74
2022/01/11 06:42:50;;;;;;;118.70;43.78;;;;;;;-0.59;55.08;102857.97;5075685;28;20445;-73
2022/01/11 06:45:17;;;;;;;127.35;45.05;;;;;;;-0.29;54.22;102864.28;5074675;28;20060;-74
2022/01/11 06:47:44;;;;;;;121.93;43.25;;;;;;;0.01;53.17;102865.28;5074189;28;20072;-74
2022/01/11 06:50:11;;;;;;;117.70;44.38;;;;;;;-0.01;53.56;102860.06;5073203;28;20127;-74
2022/01/11 06:52:37;;;;;;;120.85;43.13;;;;;;;-0.26;54.15;102858.91;5073457;28;20450;-74
2022/01/11 06:55:06;;;;;;;119.28;44.08;;;;;;;-1.56;57.28;102867.91;5074366;28;20064;-74
2022/01/11 06:57:33;;;;;;;124.22;44.35;;;;;;;-0.08;54.48;102863.75;5072496;28;20540;-76
2022/01/11 07:00:00;;;;;;;128.70;45.40;;;;;;;0.39;53.12;102866.03;5072547;28;20049;-74
2022/01/11 07:02:27;;;;;;;121.10;45.63;;;;;;;0.23;53.00;102866.47;5073393;28;20060;-74
2022/01/11 07:04:56;;;;;;;129.40;46.33;;;;;;;0.40;52.15;102873.03;5072170;28;20102;-74
2022/01/11 07:07:23;;;;;;;119.53;44.83;;;;;;;0.70;51.52;102871.34;5074658;28;20448;-74
2022/01/11 07:09:49;;;;;;;121.13;43.72;;;;;;;-0.14;53.63;102879.72;5077226;28;20108;-73
2022/01/11 07:12:15;;;;;;;108.15;42.03;;;;;;;-0.28;54.04;102874.78;5083379;28;20083;-74
2022/01/11 07:14:42;;;;;;;110.40;40.63;;;;;;;-0.59;55.57;102886.97;5084155;28;20060;-74
2022/01/11 07:17:08;;;;;;;122.60;42.55;;;;;;;-1.03;56.83;102889.66;5074774;28;20135;-74
2022/01/11 07:19:35;;;;;;;101.18;40.75;;;;;;;-0.52;55.34;102884.16;5072759;28;20532;-74
2022/01/11 07:22:02;;;;;;;106.25;41.17;;;;;;;-0.79;55.19;102892.69;5073894;28;20119;-74
2022/01/11 07:24:28;;;;;;;125.85;43.47;;;;;;;-0.07;53.39;102894.50;5074318;28;20044;-73
2022/01/11 07:26:55;;;;;;;117.40;42.53;;;;;;;-0.56;54.59;102890.41;5073938;28;20127;-74
2022/01/11 07:29:21;;;;;;;111.93;42.88;;;;;;;-1.56;58.72;102894.22;5073247;28;20083;-74
2022/01/11 07:31:48;;;;;;;114.93;41.55;;;;;;;-0.72;56.60;102900.41;5074177;28;20071;-74
2022/01/11 07:34:16;;;;;;;120.55;43.42;;;;;;;-0.17;54.19;102895.63;5072823;28;20083;-73
2022/01/11 07:36:43;;;;;;;120.30;43.33;;;;;;;-0.45;55.33;102900.69;5072278;28;20120;-73
2022/01/11 07:39:12;;;;;;;107.43;40.95;;;;;;;0.45;52.47;102906.34;5072874;28;20068;-73
2022/01/11 07:41:40;;;;;;;119.70;42.25;;;;;;;0.40;52.24;102908.28;5077487;28;20508;-75
2022/01/11 07:44:06;;;;;;;102.68;38.63;;;;;;;0.46;52.25;102912.50;5076176;28;20040;-75
2022/01/11 07:46:33;;;;;;;102.68;38.38;;;;;;;0.16;52.47;102922.09;5075851;28;20044;-74
2022/01/11 07:48:59;;;;;;;108.55;39.25;;;;;;;-0.04;53.00;102926.09;5076576;28;20061;-74
2022/01/11 07:51:26;;;;;;;104.35;39.78;;;;;;;0.00;53.17;102930.38;5069409;28;20127;-73
2022/01/11 07:53:53;;;;;;;110.97;40.55;;;;;;;0.34;52.18;102933.97;5075884;28;20131;-73
2022/01/11 07:56:20;;;;;;;101.18;40.63;;;;;;;0.38;51.91;102925.91;5077756;28;20477;-74
2022/01/11 07:58:47;;;;;;;101.93;38.63;;;;;;;0.40;51.58;102926.75;5059255;28;20064;-73
2022/01/11 08:01:14;;;;;;;96.75;39.58;;;;;;;0.10;53.06;102932.81;5074420;28;20052;-74
2022/01/11 08:03:41;;;;;;;105.28;39.67;;;;;;;0.39;51.81;102935.56;5077586;28;20074;-74
2022/01/11 08:06:07;;;;;;;106.30;40.95;;;;;;;0.35;51.90;102939.19;5078465;28;20055;-74
2022/01/11 08:08:34;;;;;;;100.55;39.58;;;;;;;0.25;52.39;102932.41;5076052;28;20421;-73
2022/01/11 08:11:00;;;;;;;99.18;38.67;;;;;;;0.29;52.19;102939.34;5078158;28;20528;-74
2022/01/11 08:13:26;;;;;;;103.78;38.97;;;;;;;-0.17;53.23;102945.75;5076640;28;20551;-74
2022/01/11 08:15:53;;;;;;;95.15;37.78;;;;;;;-0.42;54.51;102942.81;5077969;28;20540;-74
2022/01/11 08:18:19;;;;;;;93.50;38.17;;;;;;;-0.26;53.57;102940.69;5076990;28;20127;-73
2022/01/11 08:20:47;;;;;;;95.65;35.85;;;;;;;-1.29;55.94;102947.28;5077304;28;20055;-74
2022/01/11 08:23:15;;;;;;;99.28;38.15;;;;;;;0.00;52.84;102946.22;5071080;28;20051;-75
2022/01/11 08:25:41;;;;;;;94.05;37.17;;;;;;;0.37;51.68;102939.16;5076272;28;20056;-74
2022/01/11 08:28:09;;;;;;;108.15;41.72;;;;;;;-0.74;53.83;102944.41;5076389;28;20447;-74
2022/01/11 08:30:36;;;;;;;100.85;38.78;;;;;;;-0.40;54.35;102948.06;5075218;28;20052;-74
2022/01/11 08:33:04;;;;;;;91.00;37.30;;;;;;;-0.16;53.70;102951.91;5076092;28;20620;-74
2022/01/11 08:35:31;;;;;;;108.22;39.53;;;;;;;-1.00;55.09;102952.81;5075216;28;20056;-74
2022/01/11 08:38:03;;;;;;;94.15;39.35;;;;;;;0.23;52.38;102953.59;5078110;28;20044;-74
2022/01/11 08:40:29;;;;;;;113.10;42.83;;;;;;;0.16;52.50;102954.66;5081227;28;20044;-76
2022/01/11 08:42:56;;;;;;;96.15;37.45;;;;;;;-0.28;53.82;102958.34;5082909;28;20048;-74
2022/01/11 08:45:23;;;;;;;98.07;38.05;;;;;;;-0.32;53.31;102959.31;5081947;28;20076;-74
2022/01/11 08:47:49;;;;;;;91.80;36.03;;;;;;;0.26;52.04;102965.81;5065995;28;20040;-74
2022/01/11 08:50:16;;;;;;;95.72;38.78;;;;;;;0.10;52.84;102961.84;5076178;28;20063;-74
2022/01/11 08:52:45;;;;;;;100.63;37.85;;;;;;;-0.22;53.48;102963.47;5079545;28;20049;-74
2022/01/11 08:55:12;;;;;;;92.88;36.92;;;;;;;0.14;52.35;102966.13;5077738;28;20463;-74
2022/01/11 08:57:39;;;;;;;106.57;38.83;;;;;;;-0.08;53.03;102968.44;5077649;28;20107;-74
2022/01/11 09:00:13;;;;;;;90.63;36.75;;;;;;;-0.45;53.74;102967.47;5076584;28;20095;-74
2022/01/11 09:02:39;;;;;;;93.38;38.30;;;;;;;0.52;51.65;102957.25;5075923;28;20447;-74
2022/01/11 09:05:06;;;;;;;95.63;37.75;;;;;;;1.04;50.09;102958.47;5075986;28;20056;-74
2022/01/11 09:07:33;;;;;;;95.15;37.75;;;;;;;0.68;50.83;102965.63;5077343;28;20123;-74
2022/01/11 09:09:59;;;;;;;93.55;36.75;;;;;;;0.98;49.66;102969.19;5075378;28;20123;-74
2022/01/11 09:12:26;;;;;;;92.93;36.83;;;;;;;-0.17;52.84;102966.00;5073498;28;20048;-74
2022/01/11 09:14:52;;;;;;;91.35;35.78;;;;;;;-0.22;52.98;102968.75;5074827;28;20135;-74
2022/01/11 09:17:19;;;;;;;88.70;35.67;;;;;;;-0.07;52.45;102967.53;5073276;28;20044;-74
2022/01/11 09:19:46;;;;;;;88.35;36.17;;;;;;;-0.60;53.69;102975.75;5074206;28;20055;-74
2022/01/11 09:22:13;;;;;;;88.47;34.13;;;;;;;-0.38;53.17;102973.50;5057028;28;20055;-74
2022/01/11 09:24:40;;;;;;;84.18;32.97;;;;;;;-0.74;54.26;102975.16;5075623;28;20059;-74
2022/01/11 09:27:06;;;;;;;85.93;34.33;;;;;;;0.16;52.60;102974.91;5075047;28;20131;-75
2022/01/11 09:29:36;;;;;;;87.80;35.60;;;;;;;0.29;52.07;102976.31;5074741;28;20130;-74
2022/01/11 09:32:05;;;;;;;89.05;36.45;;;;;;;1.04;49.86;102976.09;5075889;28;20140;-75
2022/01/11 09:34:34;;;;;;;90.95;35.83;;;;;;;1.12;49.73;102974.09;5076149;28;20071;-75
2022/01/11 09:37:00;;;;;;;83.55;35.20;;;;;;;0.38;51.05;102973.44;5074865;28;20056;-75
2022/01/11 09:39:27;;;;;;;88.45;35.75;;;;;;;0.78;50.28;102969.78;5074109;28;20049;-74
2022/01/11 09:41:59;;;;;;;90.68;36.38;;;;;;;0.99;49.67;102978.88;5076233;28;20413;-74
2022/01/11 09:44:26;;;;;;;84.60;34.78;;;;;;;-0.05;51.81;102966.59;5074491;28;20078;-75
2022/01/11 09:46:53;;;;;;;78.50;34.58;;;;;;;0.72;50.34;102965.50;5075528;28;20076;-74
2022/01/11 09:49:20;;;;;;;81.60;32.92;;;;;;;0.79;50.04;102965.34;5075547;28;20123;-74
2022/01/11 09:51:47;;;;;;;74.90;33.15;;;;;;;0.58;50.20;102966.78;5075444;28;20072;-75
2022/01/11 09:54:13;;;;;;;84.13;34.65;;;;;;;0.52;50.55;102966.03;5078876;28;20507;-77
2022/01/11 09:56:40;;;;;;;76.63;32.92;;;;;;;-0.47;52.94;102971.06;5081880;28;20045;-77
2022/01/11 09:59:06;;;;;;;84.25;33.17;;;;;;;0.35;51.67;102978.78;5071625;28;20060;-77
2022/01/11 10:01:35;;;;;;;88.05;35.88;;;;;;;0.74;50.49;102968.09;5074563;28;20098;-76
2022/01/11 10:04:08;;;;;;;86.45;34.85;;;;;;;-0.24;53.10;102960.84;5077117;28;20123;-76
2022/01/11 10:06:39;;;;;;;77.30;32.28;;;;;;;-0.46;53.38;102963.13;5077778;28;20040;-76
2022/01/11 10:09:10;;;;;;;80.97;33.57;;;;;;;0.07;52.14;102964.56;5078463;28;20135;-77
2022/01/11 10:11:44;;;;;;;76.32;33.38;;;;;;;-0.30;52.55;102961.00;5079067;28;20353;-76
2022/01/11 10:14:31;;;;;;;81.20;34.78;;;;;;;0.22;52.31;102958.88;5080151;28;20044;-76
2022/01/11 10:17:18;;;;;;;77.90;32.60;;;;;;;-0.09;52.53;102953.47;5078180;28;20044;-76
2022/01/11 10:19:49;;;;;;;76.20;32.40;;;;;;;-0.17;52.58;102961.59;5076568;28;20039;-77
2022/01/11 10:22:20;;;;;;;83.82;35.08;;;;;;;-0.12;52.58;102951.81;5079276;28;20374;-76
2022/01/11 10:24:49;;;;;;;77.53;33.50;;;;;;;0.30;52.04;102956.94;5078901;28;20067;-76
2022/01/11 10:27:20;;;;;;;80.80;34.05;;;;;;;-0.16;52.72;102963.31;5078006;28;20040;-76
2022/01/11 10:29:50;;;;;;;72.35;31.35;;;;;;;-0.41;53.08;102963.00;5077568;28;20128;-76
2022/01/11 10:32:18;;;;;;;81.43;32.58;;;;;;;0.22;51.82;102958.88;5077805;28;20084;-76
2022/01/11 10:34:49;;;;;;;76.35;33.58;;;;;;;0.40;51.12;102963.72;5078186;28;20044;-76
2022/01/11 10:37:27;;;;;;;80.97;31.58;;;;;;;0.32;51.17;102976.22;5078354;28;20048;-76
2022/01/11 10:40:14;;;;;;;74.43;30.08;;;;;;;-0.42;52.71;102977.97;5078442;28;20041;-76
2022/01/11 10:42:48;;;;;;;72.85;32.15;;;;;;;0.53;51.07;102975.69;5079005;28;20051;-77
2022/01/11 10:45:27;;;;;;;74.63;32.47;;;;;;;0.33;51.16;102972.72;5077386;28;20087;-76
2022/01/11 10:48:05;;;;;;;77.75;35.50;;;;;;;0.73;51.02;102977.78;5076129;28;20040;-76
2022/01/11 10:50:37;;;;;;;79.18;32.30;;;;;;;0.85;50.04;102973.97;5074543;28;20121;-76
2022/01/11 10:53:11;;;;;;;71.22;32.03;;;;;;;1.19;48.84;102965.06;5074265;28;20070;-76
2022/01/11 10:55:38;;;;;;;73.28;33.47;;;;;;;1.33;49.21;102965.53;5073791;28;20052;-76
2022/01/11 10:58:28;;;;;;;80.60;34.80;;;;;;;0.03;52.27;102955.84;5064483;28;20071;-76
2022/01/11 11:00:56;;;;;;;82.28;33.80;;;;;;;0.76;50.20;102958.38;5074436;28;20060;-76
2022/01/11 11:03:24;;;;;;;81.45;34.28;;;;;;;0.47;51.16;102956.50;5077092;28;20106;-76
2022/01/11 11:05:54;;;;;;;80.80;34.25;;;;;;;0.22;52.04;102962.38;5075139;28;20451;-76
2022/01/11 11:08:24;;;;;;;79.38;34.30;;;;;;;0.38;51.49;102954.09;5074948;28;20120;-76
2022/01/11 11:11:00;;;;;;;83.97;35.17;;;;;;;1.31;49.29;102964.72;5074828;28;20051;-76
2022/01/11 11:13:36;;;;;;;83.72;36.25;;;;;;;1.59;48.08;102955.97;5077714;28;20044;-76